createdAt,value
2018-03-22T00:01:43.755Z,8.83
2018-03-22T00:04:11.203Z,7.77
2018-03-22T00:06:39.495Z,10.30
2018-03-22T00:09:06.982Z,9.50
2018-03-22T00:11:34.442Z,8.33
2018-03-22T00:14:02.131Z,9.57
2018-03-22T00:16:29.568Z,6.73
2018-03-22T00:18:57.053Z,11.47
2018-03-22T00:21:24.999Z,9.07
2018-03-22T00:23:52.521Z,10.17
2018-03-22T00:26:19.985Z,8.40
2018-03-22T00:28:47.433Z,7.27
2018-03-22T00:31:14.888Z,7.90
2018-03-22T00:33:42.360Z,5.80
2018-03-22T00:36:10.603Z,9.70
2018-03-22T00:38:38.093Z,8.23
2018-03-22T00:41:05.540Z,7.60
2018-03-22T00:43:33.012Z,10.10
2018-03-22T00:46:00.472Z,9.53
2018-03-22T00:48:27.983Z,10.23
2018-03-22T00:50:55.423Z,6.43
2018-03-22T00:53:23.003Z,8.73
2018-03-22T00:55:50.488Z,9.03
2018-03-22T00:58:36.665Z,7.20
2018-03-22T01:01:04.141Z,7.60
2018-03-22T01:03:31.609Z,9.57
2018-03-22T01:05:59.061Z,10.53
2018-03-22T01:08:26.502Z,8.60
2018-03-22T01:10:53.955Z,9.77
2018-03-22T01:13:21.444Z,11.20
2018-03-22T01:15:48.918Z,7.43
2018-03-22T01:18:16.370Z,7.90
2018-03-22T01:20:43.830Z,7.73
2018-03-22T01:23:11.310Z,10.40
2018-03-22T01:25:38.776Z,8.93
2018-03-22T01:28:06.249Z,8.90
2018-03-22T01:30:44.287Z,7.70
2018-03-22T01:33:11.772Z,9.67
2018-03-22T01:35:39.244Z,12.03
2018-03-22T01:38:06.701Z,7.93
2018-03-22T01:40:34.137Z,8.67
2018-03-22T01:43:01.687Z,13.50
2018-03-22T01:45:29.143Z,9.07
2018-03-22T01:47:56.593Z,12.63
2018-03-22T01:50:24.034Z,9.30
2018-03-22T01:53:03.299Z,8.37
2018-03-22T01:55:31.569Z,10.20
2018-03-22T01:57:59.042Z,11.57
2018-03-22T02:00:26.529Z,9.33
2018-03-22T02:02:53.997Z,9.30
2018-03-22T02:05:21.469Z,11.97
2018-03-22T02:07:49.195Z,9.63
2018-03-22T02:10:16.638Z,10.27
2018-03-22T02:12:44.092Z,10.97
2018-03-22T02:15:11.596Z,9.60
2018-03-22T02:17:39.122Z,8.17
2018-03-22T02:20:06.607Z,9.47
2018-03-22T02:22:34.072Z,10.87
2018-03-22T02:25:01.525Z,13.23
2018-03-22T02:27:28.980Z,10.60
2018-03-22T02:29:56.452Z,9.23
2018-03-22T02:32:23.943Z,8.23
2018-03-22T02:34:51.433Z,8.83
2018-03-22T02:37:18.907Z,10.73
2018-03-22T02:39:46.373Z,8.47
2018-03-22T02:42:14.559Z,12.23
2018-03-22T02:44:42.066Z,8.10
2018-03-22T02:47:09.517Z,11.50
2018-03-22T02:49:36.972Z,7.93
2018-03-22T02:52:04.415Z,9.63
2018-03-22T02:54:31.867Z,12.00
2018-03-22T02:56:59.328Z,8.97
2018-03-22T02:59:26.956Z,10.17
2018-03-22T03:01:54.407Z,10.33
2018-03-22T03:04:21.860Z,9.23
2018-03-22T03:06:49.369Z,11.60
2018-03-22T03:09:16.882Z,7.77
2018-03-22T03:11:44.332Z,10.67
2018-03-22T03:14:11.820Z,10.13
2018-03-22T03:16:39.272Z,9.47
2018-03-22T03:19:06.791Z,10.57
2018-03-22T03:21:34.264Z,12.77
2018-03-22T03:24:01.704Z,11.37
2018-03-22T03:26:29.186Z,11.13
2018-03-22T03:28:56.659Z,9.87
2018-03-22T03:31:24.109Z,9.17
2018-03-22T03:33:51.628Z,9.53
2018-03-22T03:36:19.086Z,10.03
2018-03-22T03:38:46.547Z,8.67
2018-03-22T03:41:13.998Z,7.83
2018-03-22T03:43:41.446Z,12.53
2018-03-22T03:46:08.994Z,12.57
2018-03-22T03:48:36.425Z,11.03
2018-03-22T03:51:03.920Z,9.30
2018-03-22T03:53:31.370Z,9.97
2018-03-22T03:55:58.824Z,8.20
2018-03-22T03:58:26.282Z,9.20
2018-03-22T04:00:53.740Z,12.77
2018-03-22T04:03:21.220Z,11.77
2018-03-22T04:05:48.650Z,9.80
2018-03-22T04:08:16.092Z,10.60
2018-03-22T04:10:43.589Z,11.70
2018-03-22T04:13:11.048Z,11.20
2018-03-22T04:15:38.526Z,12.13
2018-03-22T04:18:05.986Z,10.17
2018-03-22T04:20:33.432Z,10.13
2018-03-22T04:23:00.892Z,16.30
2018-03-22T04:25:28.360Z,10.23
2018-03-22T04:27:55.871Z,10.50
2018-03-22T04:30:23.367Z,11.83
2018-03-22T04:32:50.807Z,12.30
2018-03-22T04:35:18.301Z,11.60
2018-03-22T04:37:45.779Z,13.60
2018-03-22T04:40:13.240Z,13.93
2018-03-22T04:42:41.168Z,11.07
2018-03-22T04:45:09.339Z,13.57
2018-03-22T04:47:36.826Z,16.73
2018-03-22T04:50:04.286Z,17.03
2018-03-22T04:52:31.741Z,12.20
2018-03-22T04:54:59.203Z,13.93
2018-03-22T04:57:26.651Z,18.43
2018-03-22T04:59:54.169Z,16.13
2018-03-22T05:02:21.631Z,12.27
2018-03-22T05:04:49.066Z,14.57
2018-03-22T05:07:16.641Z,16.00
2018-03-22T05:09:44.081Z,13.40
2018-03-22T05:12:11.580Z,15.47
2018-03-22T05:14:39.089Z,14.50
2018-03-22T05:17:06.543Z,12.23
2018-03-22T05:19:34.072Z,15.67
2018-03-22T05:22:01.532Z,12.77
2018-03-22T05:24:29.029Z,16.33
2018-03-22T05:26:56.532Z,12.37
2018-03-22T05:29:24.007Z,13.70
2018-03-22T05:31:51.535Z,13.57
2018-03-22T05:34:19.007Z,16.50
2018-03-22T05:36:46.481Z,18.30
2018-03-22T05:39:14.015Z,15.57
2018-03-22T05:41:41.503Z,17.23
2018-03-22T05:44:09.055Z,14.20
2018-03-22T05:46:36.508Z,14.47
2018-03-22T05:49:04.081Z,20.70
2018-03-22T05:51:31.711Z,15.37
2018-03-22T05:53:59.172Z,21.37
2018-03-22T05:56:27.467Z,18.63
2018-03-22T05:58:54.922Z,17.87
2018-03-22T06:01:22.397Z,18.90
2018-03-22T06:03:49.863Z,18.17
2018-03-22T06:06:17.368Z,17.77
2018-03-22T06:08:45.277Z,16.30
2018-03-22T06:11:12.755Z,15.93
2018-03-22T06:13:40.309Z,15.87
2018-03-22T06:16:07.795Z,16.33
2018-03-22T06:18:35.291Z,22.37
2018-03-22T06:21:02.769Z,22.17
2018-03-22T06:23:30.233Z,18.47
2018-03-22T06:25:57.695Z,17.80
2018-03-22T06:28:25.205Z,22.67
2018-03-22T06:30:52.725Z,26.33
2018-03-22T06:33:20.265Z,21.73
2018-03-22T06:35:47.727Z,22.27
2018-03-22T06:38:16.921Z,22.07
2018-03-22T06:40:45.353Z,20.87
2018-03-22T06:43:12.809Z,24.03
2018-03-22T06:45:40.298Z,17.83
2018-03-22T06:48:08.021Z,20.53
2018-03-22T06:50:36.509Z,22.90
2018-03-22T06:53:03.996Z,20.30
2018-03-22T06:55:31.527Z,21.80
2018-03-22T06:57:59.303Z,19.87
2018-03-22T07:00:26.809Z,21.27
2018-03-22T07:02:54.361Z,17.80
2018-03-22T07:05:21.861Z,25.07
2018-03-22T07:07:49.352Z,20.57
2018-03-22T07:10:16.803Z,21.90
2018-03-22T07:12:45.141Z,24.33
2018-03-22T07:15:12.609Z,22.90
2018-03-22T07:17:40.100Z,20.00
2018-03-22T07:20:07.659Z,21.07
2018-03-22T07:22:35.115Z,24.13
2018-03-22T07:25:02.573Z,20.30
2018-03-22T07:27:41.599Z,19.20
2018-03-22T07:30:09.093Z,15.50
2018-03-22T07:32:37.490Z,19.00
2018-03-22T07:35:05.043Z,23.87
2018-03-22T07:37:33.615Z,19.60
2018-03-22T07:40:01.075Z,21.00
2018-03-22T07:42:28.720Z,31.00
2018-03-22T07:44:56.186Z,20.70
2018-03-22T07:47:23.666Z,24.07
2018-03-22T07:49:51.210Z,25.57
2018-03-22T07:52:18.695Z,19.37
2018-03-22T07:54:46.225Z,28.10
2018-03-22T07:57:13.744Z,26.13
2018-03-22T07:59:41.263Z,21.43
2018-03-22T08:02:08.758Z,25.40
2018-03-22T08:04:36.244Z,29.90
2018-03-22T08:07:03.778Z,22.80
2018-03-22T08:09:31.567Z,32.50
2018-03-22T08:11:59.094Z,27.83
2018-03-22T08:14:26.592Z,25.30
2018-03-22T08:16:54.217Z,21.43
2018-03-22T08:19:21.736Z,22.40
2018-03-22T08:21:50.659Z,22.83
2018-03-22T08:24:18.243Z,26.70
2018-03-22T08:26:45.748Z,25.33
2018-03-22T08:29:13.240Z,26.13
2018-03-22T08:31:40.794Z,20.77
2018-03-22T08:34:08.364Z,33.10
2018-03-22T08:36:35.844Z,24.03
2018-03-22T08:39:03.447Z,27.27
2018-03-22T08:41:30.960Z,24.23
2018-03-22T08:43:58.416Z,23.87
2018-03-22T08:46:25.908Z,23.13
2018-03-22T08:48:53.454Z,25.40
2018-03-22T08:51:20.986Z,29.17
2018-03-22T08:53:49.252Z,28.20
2018-03-22T08:56:16.738Z,30.27
2018-03-22T08:58:44.235Z,29.40
2018-03-22T09:01:11.693Z,31.57
2018-03-22T09:03:39.176Z,28.67
2018-03-22T09:06:06.786Z,33.80
2018-03-22T09:08:34.336Z,32.13
2018-03-22T09:11:01.876Z,32.63
2018-03-22T09:13:29.416Z,30.00
2018-03-22T09:15:56.884Z,34.47
2018-03-22T09:18:24.550Z,30.10
2018-03-22T09:20:52.053Z,35.33
2018-03-22T09:23:19.566Z,33.47
2018-03-22T09:25:47.484Z,30.90
2018-03-22T09:28:15.000Z,34.13
2018-03-22T09:30:42.546Z,32.80
2018-03-22T09:33:10.008Z,33.73
2018-03-22T09:35:37.600Z,34.50
2018-03-22T09:38:05.118Z,33.80
2018-03-22T09:40:32.590Z,39.30
2018-03-22T09:43:00.087Z,32.50
2018-03-22T09:45:29.145Z,34.03
2018-03-22T09:47:57.152Z,36.07
2018-03-22T09:50:24.676Z,39.10
2018-03-22T09:52:52.266Z,39.60
2018-03-22T09:55:20.914Z,32.67
2018-03-22T09:57:48.394Z,33.53
2018-03-22T10:00:15.842Z,35.40
2018-03-22T10:02:43.389Z,34.43
2018-03-22T10:05:10.931Z,37.17
2018-03-22T10:07:38.552Z,35.90
2018-03-22T10:10:06.081Z,34.97
2018-03-22T10:12:33.524Z,39.87
2018-03-22T10:15:00.978Z,32.47
2018-03-22T10:17:28.448Z,34.60
2018-03-22T10:19:56.918Z,33.03
2018-03-22T10:22:24.444Z,38.63
2018-03-22T10:24:51.939Z,35.77
2018-03-22T10:27:19.396Z,35.63
2018-03-22T10:29:46.903Z,35.47
2018-03-22T10:32:14.398Z,35.50
2018-03-22T10:34:41.884Z,33.47
2018-03-22T10:37:09.422Z,35.20
2018-03-22T10:39:37.004Z,36.40
2018-03-22T10:42:04.526Z,36.73
2018-03-22T10:44:32.206Z,44.83
2018-03-22T10:46:59.728Z,34.30
2018-03-22T10:49:27.246Z,37.90
2018-03-22T10:51:54.702Z,48.83
2018-03-22T10:54:22.342Z,33.80
2018-03-22T10:56:50.818Z,46.03
2018-03-22T10:59:18.421Z,37.17
2018-03-22T11:01:51.620Z,34.80
2018-03-22T11:04:20.926Z,36.60
2018-03-22T11:06:48.622Z,39.87
2018-03-22T11:09:21.216Z,37.73
2018-03-22T11:11:48.743Z,44.13
2018-03-22T11:14:16.294Z,35.47
2018-03-22T11:16:44.904Z,47.43
2018-03-22T11:19:12.521Z,44.77
2018-03-22T11:21:40.065Z,44.73
2018-03-22T11:24:07.622Z,39.67
2018-03-22T11:26:35.170Z,37.40
2018-03-22T11:29:02.704Z,37.70
2018-03-22T11:31:30.250Z,38.77
2018-03-22T11:33:57.734Z,39.90
2018-03-22T11:36:25.375Z,40.30
2018-03-22T11:38:52.900Z,38.70
2018-03-22T11:41:20.526Z,39.63
2018-03-22T11:43:47.974Z,40.63
2018-03-22T11:46:15.555Z,51.47
2018-03-22T11:48:43.083Z,36.57
2018-03-22T11:51:10.568Z,40.87
2018-03-22T11:53:38.024Z,50.03
2018-03-22T11:56:05.902Z,35.47
2018-03-22T11:58:33.420Z,40.93
2018-03-22T12:01:00.904Z,50.53
2018-03-22T12:03:28.386Z,38.63
2018-03-22T12:05:55.940Z,39.43
2018-03-22T12:08:24.408Z,43.30
2018-03-22T12:10:51.972Z,50.37
2018-03-22T12:13:19.462Z,37.57
2018-03-22T12:15:46.966Z,37.40
2018-03-22T12:18:14.500Z,43.33
2018-03-22T12:20:41.989Z,52.63
2018-03-22T12:23:09.516Z,36.73
2018-03-22T12:25:37.023Z,39.47
2018-03-22T12:28:05.108Z,36.70
2018-03-22T12:30:32.620Z,38.03
2018-03-22T12:33:00.115Z,34.87
2018-03-22T12:35:27.610Z,34.50
2018-03-22T12:37:55.121Z,34.77
2018-03-22T12:40:22.698Z,48.43
2018-03-22T12:42:50.176Z,37.87
2018-03-22T12:45:17.912Z,43.60
2018-03-22T12:47:45.360Z,37.33
2018-03-22T12:50:12.879Z,36.30
2018-03-22T12:52:40.372Z,45.30
2018-03-22T12:55:07.896Z,36.53
2018-03-22T12:57:35.410Z,39.47
2018-03-22T13:00:02.924Z,39.93
2018-03-22T13:02:30.428Z,35.77
2018-03-22T13:04:57.940Z,37.17
2018-03-22T13:07:25.409Z,38.20
2018-03-22T13:09:52.890Z,41.57
2018-03-22T13:12:20.378Z,40.27
2018-03-22T13:14:48.121Z,37.80
2018-03-22T13:17:15.593Z,36.80
2018-03-22T13:19:43.054Z,39.97
2018-03-22T13:22:10.569Z,42.97
2018-03-22T13:24:38.069Z,36.13
2018-03-22T13:27:05.558Z,35.93
2018-03-22T13:29:42.639Z,39.20
2018-03-22T13:32:10.372Z,36.57
2018-03-22T13:34:37.843Z,38.80
2018-03-22T13:37:05.955Z,39.37
2018-03-22T13:39:33.493Z,37.47
2018-03-22T13:42:00.991Z,42.83
2018-03-22T13:44:28.531Z,40.83
2018-03-22T13:46:56.015Z,39.43
2018-03-22T13:49:24.403Z,37.37
2018-03-22T13:51:52.048Z,40.47
2018-03-22T13:54:20.123Z,36.93
2018-03-22T13:56:47.635Z,39.47
2018-03-22T13:59:15.322Z,42.07
2018-03-22T14:01:42.923Z,40.00
2018-03-22T14:04:11.035Z,39.03
2018-03-22T14:06:38.533Z,36.40
2018-03-22T14:09:07.023Z,43.97
2018-03-22T14:11:35.417Z,37.40
2018-03-22T14:14:03.177Z,39.57
2018-03-22T14:16:30.823Z,38.10
2018-03-22T14:18:58.319Z,50.13
2018-03-22T14:21:25.931Z,38.17
2018-03-22T14:23:53.521Z,39.17
2018-03-22T14:26:21.344Z,47.30
2018-03-22T14:28:48.887Z,35.00
2018-03-22T14:31:16.352Z,39.03
2018-03-22T14:33:43.866Z,50.00
2018-03-22T14:36:11.321Z,35.50
2018-03-22T14:38:38.829Z,36.83
2018-03-22T14:41:06.335Z,49.60
2018-03-22T14:43:33.838Z,33.33
2018-03-22T14:46:01.363Z,32.73
2018-03-22T14:48:28.849Z,31.90
2018-03-22T14:50:56.353Z,44.97
2018-03-22T14:53:23.840Z,33.87
2018-03-22T14:55:51.397Z,32.03
2018-03-22T14:58:18.929Z,31.00
2018-03-22T15:00:46.441Z,31.83
2018-03-22T15:03:13.915Z,31.07
2018-03-22T15:05:41.491Z,33.30
2018-03-22T15:08:09.015Z,32.60
2018-03-22T15:10:36.587Z,29.47
2018-03-22T15:13:04.069Z,37.67
2018-03-22T15:15:32.115Z,31.33
2018-03-22T15:17:59.698Z,31.07
2018-03-22T15:20:27.219Z,27.90
2018-03-22T15:22:54.775Z,31.73
2018-03-22T15:25:22.263Z,37.67
2018-03-22T15:27:49.765Z,27.67
2018-03-22T15:30:17.491Z,30.03
2018-03-22T15:32:44.956Z,28.77
2018-03-22T15:35:12.466Z,27.40
2018-03-22T15:37:41.006Z,31.80
2018-03-22T15:40:08.473Z,31.90
2018-03-22T15:42:35.963Z,27.97
2018-03-22T15:45:03.461Z,26.77
2018-03-22T15:47:30.965Z,38.97
2018-03-22T15:49:58.471Z,28.37
2018-03-22T15:52:25.992Z,27.87
2018-03-22T15:54:53.467Z,28.87
2018-03-22T15:57:20.939Z,29.63
2018-03-22T15:59:48.526Z,28.50
2018-03-22T16:02:16.013Z,29.03
2018-03-22T16:04:43.501Z,28.37
2018-03-22T16:07:11.190Z,28.10
2018-03-22T16:09:38.692Z,28.73
2018-03-22T16:12:06.498Z,37.10
2018-03-22T16:14:34.046Z,24.87
2018-03-22T16:17:01.598Z,24.70
2018-03-22T16:19:29.113Z,33.10
2018-03-22T16:21:56.584Z,25.37
2018-03-22T16:24:24.102Z,27.83
2018-03-22T16:26:51.613Z,25.87
2018-03-22T16:29:19.102Z,24.93
2018-03-22T16:31:46.592Z,28.80
2018-03-22T16:34:14.095Z,25.70
2018-03-22T16:36:42.518Z,25.50
2018-03-22T16:39:09.995Z,24.53
2018-03-22T16:41:37.490Z,34.03
2018-03-22T16:44:04.983Z,26.40
2018-03-22T16:46:32.460Z,20.83
2018-03-22T16:49:00.003Z,24.37
2018-03-22T16:51:27.541Z,22.30
2018-03-22T16:53:55.037Z,28.47
2018-03-22T16:56:22.603Z,21.60
2018-03-22T16:58:50.208Z,23.23
2018-03-22T17:01:17.711Z,22.40
2018-03-22T17:03:45.259Z,22.87
2018-03-22T17:06:12.773Z,23.07
2018-03-22T17:08:40.376Z,24.83
2018-03-22T17:11:07.935Z,23.20
2018-03-22T17:13:35.694Z,24.00
2018-03-22T17:16:03.275Z,23.30
2018-03-22T17:18:30.746Z,22.67
2018-03-22T17:20:58.293Z,22.10
2018-03-22T17:23:25.767Z,25.53
2018-03-22T17:25:53.250Z,21.50
2018-03-22T17:28:20.704Z,21.90
2018-03-22T17:30:48.191Z,24.10
2018-03-22T17:33:15.709Z,27.07
2018-03-22T17:35:43.220Z,27.70
2018-03-22T17:38:10.726Z,25.33
2018-03-22T17:40:38.219Z,27.73
2018-03-22T17:43:05.730Z,24.70
2018-03-22T17:45:33.212Z,32.63
2018-03-22T17:48:00.743Z,28.07
2018-03-22T17:50:28.669Z,23.03
2018-03-22T17:52:56.124Z,26.60
2018-03-22T17:55:23.617Z,24.87
2018-03-22T17:57:51.159Z,22.50
2018-03-22T18:00:19.231Z,26.50
2018-03-22T18:02:46.703Z,25.63
2018-03-22T18:05:14.244Z,26.50
2018-03-22T18:07:41.709Z,26.40
2018-03-22T18:10:09.207Z,25.07
2018-03-22T18:12:36.908Z,25.47
2018-03-22T18:15:04.423Z,24.57
2018-03-22T18:17:31.909Z,33.83
2018-03-22T18:19:59.389Z,24.97
2018-03-22T18:22:26.886Z,26.60
2018-03-22T18:24:54.432Z,27.30
2018-03-22T18:27:22.031Z,27.67
2018-03-22T18:29:49.571Z,27.40
2018-03-22T18:32:17.103Z,24.67
2018-03-22T18:34:44.606Z,30.53
2018-03-22T18:37:12.134Z,36.40
2018-03-22T18:39:39.579Z,32.93
2018-03-22T18:42:07.044Z,27.07
2018-03-22T18:44:34.508Z,30.63
2018-03-22T18:47:02.113Z,28.73
2018-03-22T18:49:29.587Z,29.13
2018-03-22T18:51:57.089Z,28.93
2018-03-22T18:54:24.526Z,28.23
2018-03-22T18:56:52.008Z,26.40
2018-03-22T18:59:20.537Z,28.07
2018-03-22T19:01:48.035Z,28.03
2018-03-22T19:04:15.583Z,28.57
2018-03-22T19:06:43.056Z,28.10
2018-03-22T19:09:10.544Z,27.87
2018-03-22T19:11:38.047Z,30.37
2018-03-22T19:14:05.550Z,30.13
2018-03-22T19:16:33.060Z,27.73
2018-03-22T19:19:00.520Z,30.07
2018-03-22T19:21:28.089Z,29.10
2018-03-22T19:23:55.651Z,30.27
2018-03-22T19:26:23.199Z,30.00
2018-03-22T19:28:50.781Z,36.83
2018-03-22T19:31:18.257Z,33.50
2018-03-22T19:33:46.752Z,28.97
2018-03-22T19:36:14.233Z,27.37
2018-03-22T19:38:41.709Z,29.03
2018-03-22T19:41:09.286Z,26.77
2018-03-22T19:43:36.809Z,26.97
2018-03-22T19:46:04.273Z,26.13
2018-03-22T19:48:31.738Z,25.50
2018-03-22T19:50:59.269Z,24.50
2018-03-22T19:53:26.777Z,23.90
2018-03-22T19:55:54.332Z,26.23
2018-03-22T19:58:22.792Z,26.50
2018-03-22T20:00:50.369Z,24.67
2018-03-22T20:03:17.879Z,25.63
2018-03-22T20:05:45.520Z,25.50
2018-03-22T20:08:13.052Z,27.90
2018-03-22T20:10:40.594Z,25.80
2018-03-22T20:13:08.056Z,27.90
2018-03-22T20:15:35.575Z,26.60
2018-03-22T20:18:03.190Z,27.67
2018-03-22T20:20:30.653Z,28.10
2018-03-22T20:22:58.316Z,36.63
2018-03-22T20:25:25.945Z,29.50
2018-03-22T20:27:53.532Z,35.60
2018-03-22T20:30:20.983Z,27.23
2018-03-22T20:32:48.884Z,27.03
2018-03-22T20:35:16.337Z,40.17
2018-03-22T20:37:43.798Z,28.70
2018-03-22T20:40:11.360Z,30.73
2018-03-22T20:42:38.900Z,30.20
2018-03-22T20:45:06.682Z,39.03
2018-03-22T20:47:34.214Z,27.80
2018-03-22T20:50:01.694Z,28.77
2018-03-22T20:52:29.188Z,27.60
2018-03-22T20:54:56.706Z,36.27
2018-03-22T20:57:24.882Z,28.83
2018-03-22T20:59:52.430Z,38.40
2018-03-22T21:02:19.906Z,28.80
2018-03-22T21:04:47.425Z,40.07
2018-03-22T21:07:14.961Z,29.37
2018-03-22T21:09:42.462Z,38.67
2018-03-22T21:12:09.940Z,29.13
2018-03-22T21:14:37.416Z,36.30
2018-03-22T21:17:05.787Z,28.03
2018-03-22T21:19:33.309Z,29.80
2018-03-22T21:22:01.175Z,27.83
2018-03-22T21:24:28.676Z,31.07
2018-03-22T21:26:56.302Z,35.53
2018-03-22T21:29:28.760Z,29.97
2018-03-22T21:31:56.416Z,32.30
2018-03-22T21:34:24.610Z,30.37
2018-03-22T21:36:52.226Z,29.27
2018-03-22T21:39:21.507Z,29.33
2018-03-22T21:44:41.360Z,29.50
2018-03-22T21:49:58.903Z,30.70
2018-03-22T21:52:38.454Z,30.67
2018-03-22T21:55:05.937Z,36.63
2018-03-22T21:57:33.384Z,31.07
2018-03-22T22:00:00.869Z,32.10
2018-03-22T22:02:28.333Z,40.67
2018-03-22T22:04:56.209Z,31.40
2018-03-22T22:07:23.775Z,34.40
2018-03-22T22:09:51.341Z,43.10
2018-03-22T22:12:18.861Z,35.60
2018-03-22T22:14:46.350Z,41.10
2018-03-22T22:17:13.822Z,33.43
2018-03-22T22:19:41.367Z,33.73
2018-03-22T22:22:08.895Z,33.27
2018-03-22T22:24:36.453Z,33.43
2018-03-22T22:27:03.976Z,34.93
2018-03-22T22:29:31.459Z,34.47
2018-03-22T22:31:59.005Z,35.67
2018-03-22T22:34:26.490Z,35.63
2018-03-22T22:36:53.986Z,33.00
2018-03-22T22:39:21.505Z,33.70
2018-03-22T22:41:49.356Z,35.87
2018-03-22T22:44:16.888Z,33.53
2018-03-22T22:46:44.333Z,33.20
2018-03-22T22:49:11.817Z,42.13
2018-03-22T22:51:39.285Z,33.83
2018-03-22T22:54:06.835Z,36.83
2018-03-22T22:56:34.422Z,45.37
2018-03-22T22:59:01.903Z,34.67
2018-03-22T23:01:30.238Z,31.93
2018-03-22T23:03:57.696Z,48.87
2018-03-22T23:06:25.224Z,37.20
2018-03-22T23:08:53.286Z,35.57
2018-03-22T23:11:20.747Z,43.43
2018-03-22T23:13:48.223Z,34.30
2018-03-22T23:16:15.665Z,33.87
2018-03-22T23:18:43.148Z,36.83
2018-03-22T23:21:10.619Z,37.67
2018-03-22T23:23:38.057Z,36.13
2018-03-22T23:26:05.598Z,36.00
2018-03-22T23:28:33.067Z,44.00
2018-03-22T23:31:00.577Z,34.83
2018-03-22T23:33:28.028Z,49.23
2018-03-22T23:35:55.551Z,34.93
2018-03-22T23:38:23.083Z,34.67
2018-03-22T23:40:50.589Z,36.17
2018-03-22T23:43:18.063Z,34.60
2018-03-22T23:45:45.615Z,44.67
2018-03-22T23:48:13.068Z,35.40
2018-03-22T23:50:40.556Z,48.83
2018-03-22T23:53:08.051Z,34.13
2018-03-22T23:55:35.619Z,35.93
2018-03-22T23:58:03.101Z,36.03
